createdAt,value
2022-08-01T00:09:50.451Z,0
2022-08-01T00:24:46.607Z,0.01
2022-08-01T00:39:42.022Z,0
2022-08-01T00:54:38.253Z,0
2022-08-01T01:09:34.079Z,0
2022-08-01T01:24:30.555Z,0
2022-08-01T01:39:27.215Z,0.01
2022-08-01T01:54:23.601Z,0
2022-08-01T02:09:19.996Z,0
2022-08-01T02:24:16.342Z,0.01
2022-08-01T02:39:12.407Z,0
2022-08-01T02:54:08.746Z,0
2022-08-01T03:09:04.866Z,0.02
2022-08-01T03:24:01.285Z,0.02
2022-08-01T03:38:57.477Z,0.01
2022-08-01T03:53:53.463Z,0.02
2022-08-01T04:08:49.621Z,0.02
2022-08-01T04:23:45.602Z,0.03
2022-08-01T04:38:42.024Z,0.03
2022-08-01T04:53:38.396Z,0.05
2022-08-01T05:08:34.614Z,0.07
2022-08-01T05:23:42.751Z,0.07
2022-08-01T05:38:27.121Z,0.09
2022-08-01T05:53:23.499Z,0.1
2022-08-01T06:08:19.864Z,0.1
2022-08-01T06:23:31.160Z,0.1
2022-08-01T06:38:12.474Z,0.08
2022-08-01T06:53:08.441Z,0.14
2022-08-01T07:08:05.521Z,0.15
2022-08-01T07:23:02.286Z,0.11
2022-08-01T07:37:58.695Z,0.18
2022-08-01T07:52:54.351Z,0.11
2022-08-01T08:07:50.369Z,0.18
2022-08-01T08:22:46.723Z,0.2
2022-08-01T08:37:47.496Z,0.3
2022-08-01T08:52:39.886Z,0.17
2022-08-01T09:07:35.970Z,0.29
2022-08-01T09:22:32.315Z,0.31
2022-08-01T09:37:28.924Z,0.54
2022-08-01T09:52:25.781Z,0.19
2022-08-01T10:07:21.419Z,0.17
2022-08-01T10:22:17.463Z,0.53
2022-08-01T10:37:14.080Z,0.51
2022-08-01T10:52:10.580Z,0.28
2022-08-01T11:07:09.976Z,0.53
2022-08-01T11:22:04.413Z,0.54
2022-08-01T11:37:00.479Z,0.21
2022-08-01T11:51:56.133Z,0.16
2022-08-01T12:06:52.463Z,0.22
2022-08-01T12:21:50.335Z,0.12
2022-08-01T12:36:44.813Z,0.6
2022-08-01T12:51:41.622Z,0.68
2022-08-01T13:06:38.001Z,0.29
2022-08-01T13:21:53.436Z,0.29
2022-08-01T13:36:30.658Z,0.21
2022-08-01T13:51:27.061Z,0.13
2022-08-01T14:06:23.234Z,0.2
2022-08-01T14:21:19.573Z,0.2
2022-08-01T14:36:28.883Z,0.15
2022-08-01T14:51:12.131Z,0.26
2022-08-01T15:06:08.710Z,0.23
2022-08-01T15:21:04.958Z,0.21
2022-08-01T15:36:01.285Z,0.22
2022-08-01T15:50:58.257Z,0.17
2022-08-01T16:05:53.925Z,0.14
2022-08-01T16:20:50.087Z,0.13
2022-08-01T16:35:46.865Z,0.12
2022-08-01T16:50:42.793Z,0.19
2022-08-01T17:05:39.200Z,0.11
2022-08-01T17:20:35.640Z,0.08
2022-08-01T17:35:31.476Z,0.09
2022-08-01T17:50:27.485Z,0.07
2022-08-01T18:05:23.644Z,0.1
2022-08-01T18:20:19.696Z,0.08
2022-08-01T18:35:16.271Z,0.06
2022-08-01T18:50:12.714Z,0.06
2022-08-01T19:05:09.001Z,0.03
2022-08-01T19:20:04.822Z,0.03
2022-08-01T19:35:00.558Z,0.02
2022-08-01T19:49:56.120Z,0.02
2022-08-01T20:04:52.092Z,0
2022-08-01T20:19:48.285Z,0
2022-08-01T20:34:43.720Z,0
2022-08-01T20:49:39.880Z,0
2022-08-01T22:04:19.801Z,0
2022-08-01T22:19:32.495Z,0.01
2022-08-01T22:34:11.595Z,0
2022-08-01T22:49:08.852Z,0
2022-08-01T23:04:03.740Z,0.01
2022-08-01T23:18:59.403Z,0.01
2022-08-01T23:33:55.200Z,0.01
2022-08-01T23:48:51.060Z,0
